Time;durP1;ratioP1;P1;durP2;ratioP2;P2;SDS_P1;SDS_P2;PMS_P1;PMS_P2;Temp;Humidity;BMP_temperature;BMP_pressure;BME280_temperature;BME280_humidity;BME280_pressure;Samples;Min_cycle;Max_cycle;Signal;HPM_P1;HPM_P2
2023/09/26 00:01:33;;;;;;;7.10;4.90;;;;;;;13.10;86.71;96492.59;110706;1273;22627;-74
2023/09/26 00:04:27;;;;;;;8.50;4.80;;;;;;;13.04;86.98;96507.67;110716;1273;22204;-74
2023/09/26 00:07:19;;;;;;;8.70;5.00;;;;;;;13.02;86.85;96502.06;110711;1273;22123;-74
2023/09/26 00:10:04;;;;;;;16.50;4.80;;;;;;;12.99;87.27;96508.10;110720;1273;23009;-74
2023/09/26 00:13:23;;;;;;;9.70;5.10;;;;;;;12.99;87.38;96499.44;110583;1273;22135;-74
2023/09/26 00:16:11;;;;;;;10.40;5.50;;;;;;;13.03;87.17;96494.61;110710;1273;22144;-75
2023/09/26 00:18:42;;;;;;;8.10;5.00;;;;;;;12.96;86.96;96497.71;110718;1273;22933;-74
2023/09/26 00:21:21;;;;;;;12.80;5.10;;;;;;;12.93;86.73;96491.41;110630;1273;22125;-74
2023/09/26 00:23:57;;;;;;;8.90;5.00;;;;;;;12.96;87.03;96492.41;110732;1273;22114;-74
2023/09/26 00:26:30;;;;;;;7.60;4.50;;;;;;;12.96;86.92;96490.31;110565;1274;22319;-75
2023/09/26 00:29:08;;;;;;;11.50;4.90;;;;;;;12.90;86.27;96490.73;110541;1274;22134;-74
2023/09/26 00:31:56;;;;;;;8.90;4.90;;;;;;;12.87;87.00;96491.48;110560;1274;22119;-74
2023/09/26 00:34:39;;;;;;;11.50;5.80;;;;;;;12.85;87.41;96490.96;110616;1274;22230;-74
2023/09/26 00:37:17;;;;;;;10.10;5.00;;;;;;;12.86;87.01;96489.02;110534;1274;22207;-75
2023/09/26 00:39:53;;;;;;;6.00;4.40;;;;;;;12.79;86.92;96488.06;110545;1274;22199;-75
2023/09/26 00:42:46;;;;;;;;;;;;;;;;;;;;;
2023/09/26 00:45:39;;;;;;;12.20;4.80;;;;;;;12.72;86.75;96487.61;110573;1274;22201;-74
2023/09/26 00:48:47;;;;;;;5.70;4.10;;;;;;;12.68;86.90;96491.02;110598;1274;22182;-74
2023/09/26 00:52:08;;;;;;;11.10;4.30;;;;;;;12.62;86.34;96487.04;110584;1274;23002;-75
2023/09/26 00:55:02;;;;;;;;;;;;;;;;;;;;;
2023/09/26 00:58:16;;;;;;;10.10;4.60;;;;;;;12.62;87.22;96485.80;110608;1274;22203;-74
2023/09/26 01:01:20;;;;;;;;;;;;;;;12.60;85.68;96488.12;110637;1274;22694;-74
2023/09/26 01:04:13;;;;;;;6.50;4.20;;;;;;;12.46;86.18;96488.29;110608;1274;22300;-74
2023/09/26 01:07:26;;;;;;;14.20;5.30;;;;;;;12.44;86.41;96486.02;110615;1274;22111;-74
2023/09/26 01:10:42;;;;;;;5.80;4.10;;;;;;;12.38;86.81;96480.44;110592;1274;22219;-74
2023/09/26 01:13:54;;;;;;;10.60;4.50;;;;;;;12.30;86.33;96479.82;110595;1274;22320;-74
2023/09/26 01:16:53;;;;;;;8.50;4.60;;;;;;;12.30;86.91;96481.42;110530;1274;22856;-74
2023/09/26 01:20:19;;;;;;;9.50;4.30;;;;;;;12.30;87.33;96484.06;110634;1274;22967;-74
2023/09/26 01:22:55;;;;;;;4.60;4.20;;;;;;;12.31;86.93;96482.81;110596;1274;22903;-74
2023/09/26 01:25:50;;;;;;;11.70;5.00;;;;;;;12.25;86.30;96482.00;110508;1274;22172;-74
2023/09/26 01:28:45;;;;;;;11.10;4.90;;;;;;;12.22;86.89;96484.67;110573;1274;22140;-74
2023/09/26 01:31:57;;;;;;;10.10;5.50;;;;;;;12.12;86.38;96481.60;110572;1274;22158;-74
2023/09/26 01:35:16;;;;;;;7.70;5.40;;;;;;;12.14;86.87;96480.52;110589;1274;22913;-74
2023/09/26 01:38:05;;;;;;;9.00;5.40;;;;;;;12.18;86.59;96485.25;110578;1274;22924;-74
2023/09/26 01:40:58;;;;;;;9.90;5.40;;;;;;;12.07;86.25;96482.54;110586;1274;22133;-74
2023/09/26 01:44:02;;;;;;;12.60;6.20;;;;;;;11.97;87.02;96480.88;110628;1270;22142;-74
2023/09/26 01:46:49;;;;;;;7.70;5.90;;;;;;;11.90;87.48;96482.88;110626;1274;22114;-74
2023/09/26 01:50:00;;;;;;;8.40;5.90;;;;;;;11.84;87.39;96479.56;110597;1274;22881;-74
2023/09/26 01:52:32;;;;;;;12.00;6.10;;;;;;;11.79;87.45;96475.02;110614;1274;22126;-74
2023/09/26 01:56:04;;;;;;;8.00;5.60;;;;;;;11.82;87.40;96473.77;110562;1274;22886;-74
2023/09/26 01:59:12;;;;;;;15.40;5.50;;;;;;;11.77;87.32;96475.73;110561;1274;22935;-73
2023/09/26 02:02:20;;;;;;;9.40;5.40;;;;;;;11.70;87.95;96480.38;110596;1274;22238;-74
2023/09/26 02:05:34;;;;;;;6.00;4.70;;;;;;;11.65;88.11;96483.59;110546;1274;22159;-73
2023/09/26 02:08:22;;;;;;;;;;;;;;;;;;;;;
2023/09/26 02:11:15;;;;;;;11.80;4.60;;;;;;;11.69;87.76;96483.55;110549;1274;22187;-74
2023/09/26 02:14:17;;;;;;;;;;;;;;;;;;;;;
2023/09/26 02:18:11;;;;;;;;;;;;;;;;;;;;;
2023/09/26 02:21:11;;;;;;;8.40;4.80;;;;;;;11.61;87.58;96480.83;110468;1274;22206;-74
2023/09/26 02:24:49;;;;;;;11.90;4.50;;;;;;;11.57;87.77;96481.91;110482;1274;22209;-74
2023/09/26 02:27:54;;;;;;;;;;;;;;;;;;;;;
2023/09/26 02:30:38;;;;;;;7.70;4.70;;;;;;;11.59;87.84;96484.70;110566;1273;22119;-74
2023/09/26 02:33:20;;;;;;;7.20;4.50;;;;;;;11.66;87.97;96484.65;110597;1273;22162;-74
2023/09/26 02:36:29;;;;;;;;;;;;;;;11.69;87.68;96485.67;110697;1266;22235;-77
2023/09/26 02:39:44;;;;;;;9.00;4.70;;;;;;;11.73;87.99;96487.42;110680;1273;22194;-74
2023/09/26 02:43:23;;;;;;;8.00;4.20;;;;;;;11.73;87.52;96485.46;110572;1273;22228;-74
2023/09/26 02:46:33;;;;;;;12.30;4.30;;;;;;;11.69;87.98;96491.84;110663;1273;22307;-74
2023/09/26 02:50:03;;;;;;;18.60;4.80;;;;;;;11.64;87.79;96492.07;110693;1273;22139;-74
2023/09/26 02:52:48;;;;;;;11.90;4.70;;;;;;;11.66;87.49;96490.28;110462;1273;22277;-74
2023/09/26 02:56:02;;;;;;;9.00;4.30;;;;;;;11.66;87.74;96492.56;110670;1273;22335;-75
2023/09/26 02:59:43;;;;;;;7.70;4.10;;;;;;;11.68;87.13;96487.80;110597;1273;22919;-75
2023/09/26 03:02:29;;;;;;;9.60;4.20;;;;;;;11.61;86.76;96484.70;110456;1273;22225;-75
2023/09/26 03:05:12;;;;;;;9.30;4.20;;;;;;;11.64;87.27;96488.37;110670;1273;22079;-74
2023/09/26 03:07:56;;;;;;;10.40;4.20;;;;;;;11.70;86.97;96485.33;110705;1273;22139;-75
2023/09/26 03:11:10;;;;;;;6.30;4.10;;;;;;;11.66;86.31;96486.05;110605;1273;22144;-75
2023/09/26 03:14:59;;;;;;;13.40;4.80;;;;;;;11.61;86.50;96489.10;110690;1273;22150;-75
2023/09/26 03:17:33;;;;;;;7.40;4.90;;;;;;;11.44;86.16;96490.81;110594;1268;22136;-75
2023/09/26 03:20:17;;;;;;;12.10;5.40;;;;;;;11.35;86.84;96489.12;110574;1273;22204;-74
2023/09/26 03:23:08;;;;;;;9.10;5.90;;;;;;;11.33;87.69;96492.48;110590;1273;22135;-74
2023/09/26 03:26:31;;;;;;;9.50;5.40;;;;;;;11.36;87.91;96490.16;110696;1273;22835;-74
2023/09/26 03:29:38;;;;;;;7.20;5.60;;;;;;;11.32;87.42;96490.39;110544;1273;22122;-75
2023/09/26 03:32:57;;;;;;;;;;;;;;;;;;;;;
2023/09/26 03:39:58;;;;;;;6.30;4.70;;;;;;;11.10;88.40;96499.69;110540;1273;22866;-74
2023/09/26 03:43:31;;;;;;;7.70;4.70;;;;;;;11.02;88.18;96503.25;110647;1273;22186;-75
2023/09/26 03:47:20;;;;;;;6.90;4.80;;;;;;;10.89;87.88;96499.80;110724;1273;22968;-77
2023/09/26 03:50:46;;;;;;;6.60;5.20;;;;;;;10.80;88.54;96503.02;110692;1273;22127;-74
2023/09/26 03:54:31;;;;;;;11.60;4.70;;;;;;;10.80;88.71;96502.31;110545;1273;22128;-74
2023/09/26 03:58:45;;;;;;;8.30;6.00;;;;;;;10.83;88.92;96506.16;110693;1273;22183;-75
2023/09/26 04:01:58;;;;;;;10.00;4.60;;;;;;;10.84;88.48;96504.23;110395;1273;22863;-75
2023/09/26 04:05:27;;;;;;;13.20;4.30;;;;;;;10.87;88.91;96509.68;110545;1273;22843;-74
2023/09/26 04:08:46;;;;;;;;;;;;;;;;;;;;;
2023/09/26 04:12:05;;;;;;;10.00;4.80;;;;;;;10.94;88.74;96511.39;110625;1273;22962;-74
2023/09/26 04:15:25;;;;;;;8.10;4.20;;;;;;;10.97;88.57;96511.55;110692;1273;22133;-75
2023/09/26 04:18:35;;;;;;;7.70;5.00;;;;;;;11.03;88.43;96509.75;110676;1273;22167;-75
2023/09/26 04:22:24;;;;;;;8.00;3.90;;;;;;;11.09;88.50;96510.95;110721;1273;22193;-75
2023/09/26 04:25:53;;;;;;;7.00;4.00;;;;;;;11.08;88.20;96510.62;110715;1273;22436;-75
2023/09/26 04:29:05;;;;;;;;;;;;;;;;;;;;;
2023/09/26 04:32:12;;;;;;;;;;;;;;;;;;;;;
2023/09/26 04:35:57;;;;;;;9.60;4.40;;;;;;;11.19;87.74;96514.08;110709;1273;22824;-75
2023/09/26 04:39:12;;;;;;;;;;;;;;;;;;;;;
2023/09/26 04:42:06;;;;;;;7.80;4.30;;;;;;;11.24;87.74;96510.52;110693;1273;22912;-75
2023/09/26 04:45:03;;;;;;;7.00;4.10;;;;;;;11.20;87.14;96510.17;110685;1273;22106;-75
2023/09/26 04:48:06;;;;;;;11.30;5.50;;;;;;;11.19;87.67;96513.53;110722;1273;22991;-75
2023/09/26 04:51:04;;;;;;;;;;;;;;;11.30;88.39;96518.40;110685;1273;22256;-75
2023/09/26 04:54:01;;;;;;;12.10;4.60;;;;;;;11.38;87.93;96521.70;110701;1273;22150;-74
2023/09/26 04:57:37;;;;;;;10.30;4.40;;;;;;;11.43;87.75;96522.71;110684;1273;22260;-75
2023/09/26 05:01:26;;;;;;;6.40;4.60;;;;;;;11.49;87.76;96520.20;110561;1273;22362;-75
2023/09/26 05:04:25;;;;;;;;;;;;;;;;;;;;;
2023/09/26 05:07:25;;;;;;;8.50;4.40;;;;;;;11.51;87.87;96515.79;110554;1273;22344;-74
2023/09/26 05:10:56;;;;;;;10.60;4.20;;;;;;;11.57;88.22;96514.69;110636;1273;22118;-75
2023/09/26 05:14:12;;;;;;;11.70;5.70;;;;;;;11.66;88.88;96514.96;110490;1273;22100;-75
2023/09/26 05:16:50;;;;;;;10.10;5.50;;;;;;;11.79;88.62;96512.21;110710;1273;22861;-75
2023/09/26 05:20:32;;;;;;;8.70;4.60;;;;;;;11.92;88.93;96520.24;110575;1273;22171;-75
2023/09/26 05:23:07;;;;;;;8.20;4.40;;;;;;;12.10;88.77;96521.13;110593;1273;22205;-74
2023/09/26 05:26:04;;;;;;;9.30;4.60;;;;;;;12.25;88.17;96525.58;110700;1273;22333;-73
2023/09/26 05:29:26;;;;;;;;;;;;;;;;;;;;;
2023/09/26 05:32:41;;;;;;;;;;;;;;;;;;;;;
2023/09/26 05:35:38;;;;;;;9.20;5.50;;;;;;;12.59;87.71;96529.61;110646;1273;22233;-74
2023/09/26 05:38:49;;;;;;;8.70;5.70;;;;;;;12.61;86.66;96526.05;110581;1266;22123;-75
2023/09/26 05:42:01;;;;;;;;;;;;;;;;;;;;;
2023/09/26 05:44:34;;;;;;;8.40;5.70;;;;;;;12.67;87.42;96529.16;110610;1274;22838;-74
2023/09/26 05:47:18;;;;;;;8.30;5.20;;;;;;;12.76;87.49;96530.65;110544;1273;22186;-77
2023/09/26 05:49:51;;;;;;;10.10;5.80;;;;;;;12.86;87.26;96523.98;110623;1272;22158;-76
2023/09/26 05:53:28;;;;;;;;;;;;;;;;;;;;;
2023/09/26 05:56:30;;;;;;;12.30;5.70;;;;;;;12.99;86.97;96525.23;110714;1273;22134;-74
2023/09/26 05:59:33;;;;;;;13.90;5.40;;;;;;;13.06;86.77;96524.79;110700;1273;22231;-75
2023/09/26 06:02:47;;;;;;;7.20;5.50;;;;;;;13.15;86.84;96526.08;110620;1273;22329;-75
2023/09/26 06:05:29;;;;;;;;;;;;;;;13.24;86.39;96519.95;110726;1273;22246;-74
2023/09/26 06:08:13;;;;;;;7.90;5.40;;;;;;;13.25;86.53;96519.94;110722;1273;22140;-75
2023/09/26 06:11:02;;;;;;;7.30;5.50;;;;;;;13.31;87.01;96521.83;110718;1262;22238;-75
2023/09/26 06:13:40;;;;;;;9.40;5.60;;;;;;;13.42;86.90;96523.96;110691;1273;23058;-77
2023/09/26 06:16:13;;;;;;;8.50;5.20;;;;;;;13.51;86.65;96521.88;110538;1273;22273;-76
2023/09/26 06:18:47;;;;;;;12.60;6.70;;;;;;;13.61;86.42;96520.13;110678;1273;22240;-75
2023/09/26 06:21:28;;;;;;;7.40;5.50;;;;;;;13.71;86.16;96517.33;110534;1273;22187;-74
2023/09/26 06:23:57;;;;;;;8.10;4.90;;;;;;;13.84;86.09;96512.86;110526;1273;22125;-76
2023/09/26 06:26:25;;;;;;;7.10;4.60;;;;;;;13.98;85.52;96509.27;110682;1273;23044;-75
2023/09/26 06:28:54;;;;;;;10.70;4.90;;;;;;;14.09;84.97;96510.48;110524;1273;22153;-74
2023/09/26 06:31:22;;;;;;;6.30;4.60;;;;;;;14.21;84.14;96508.52;110704;1273;23549;-75
2023/09/26 06:33:56;;;;;;;12.20;4.70;;;;;;;14.34;84.48;96508.61;110650;1273;22444;-75
2023/09/26 06:36:25;;;;;;;10.10;5.50;;;;;;;14.49;84.03;96508.16;110645;1273;22171;-76
2023/09/26 06:38:59;;;;;;;6.80;4.60;;;;;;;14.64;83.99;96504.71;110536;1273;23081;-74
2023/09/26 06:41:27;;;;;;;11.10;4.40;;;;;;;14.79;83.27;96505.30;110599;1273;22151;-72
2023/09/26 06:43:58;;;;;;;10.30;4.70;;;;;;;14.93;83.03;96503.41;110675;1273;22597;-73
2023/09/26 06:46:28;;;;;;;6.90;4.60;;;;;;;15.08;82.80;96504.33;110698;1273;23005;-76
2023/09/26 06:49:07;;;;;;;10.20;5.10;;;;;;;15.26;82.42;96500.73;110674;1273;22350;-74
2023/09/26 06:51:38;;;;;;;14.50;4.80;;;;;;;15.45;82.54;96498.35;110604;1267;22293;-74
2023/09/26 06:54:07;;;;;;;6.60;4.20;;;;;;;15.63;82.22;96498.47;110553;1274;22173;-75
2023/09/26 06:56:35;;;;;;;7.70;4.40;;;;;;;15.85;82.47;96498.33;110525;1263;22142;-76
2023/09/26 06:59:04;;;;;;;8.00;4.90;;;;;;;16.04;82.40;96499.43;110549;1274;22165;-75
2023/09/26 07:01:35;;;;;;;7.70;5.30;;;;;;;16.21;81.13;96505.58;110579;1274;22169;-76
2023/09/26 07:04:04;;;;;;;9.40;4.90;;;;;;;16.41;81.53;96500.95;110565;1274;22124;-76
2023/09/26 07:06:40;;;;;;;9.20;5.40;;;;;;;16.62;81.15;96504.63;110582;1273;23202;-75
2023/09/26 07:09:12;;;;;;;8.60;4.90;;;;;;;16.80;79.67;96502.74;110703;1273;22227;-76
2023/09/26 07:11:41;;;;;;;10.40;5.60;;;;;;;16.82;79.97;96501.97;110692;1273;22922;-76
2023/09/26 07:14:09;;;;;;;9.70;5.70;;;;;;;16.92;80.24;96503.12;110538;1273;22308;-75
2023/09/26 07:16:39;;;;;;;7.70;4.90;;;;;;;17.09;80.26;96498.85;110596;1273;22269;-76
2023/09/26 07:19:07;;;;;;;11.90;5.90;;;;;;;17.26;79.83;96499.59;110550;1273;22139;-76
2023/09/26 07:21:39;;;;;;;9.70;5.70;;;;;;;17.42;79.47;96498.42;110546;1273;22199;-76
2023/09/26 07:24:08;;;;;;;10.20;5.80;;;;;;;17.56;78.10;96499.74;110561;1273;23171;-77
2023/09/26 07:26:36;;;;;;;10.70;5.70;;;;;;;17.69;76.99;96501.29;110654;1273;23166;-78
2023/09/26 07:29:04;;;;;;;10.90;5.50;;;;;;;17.73;76.49;96499.71;110707;1273;22461;-75
2023/09/26 07:31:33;;;;;;;8.20;4.90;;;;;;;17.74;76.10;96495.79;110566;1273;22440;-75
2023/09/26 07:34:01;;;;;;;12.90;4.80;;;;;;;17.86;75.74;96498.27;110703;1269;22312;-75
2023/09/26 07:36:30;;;;;;;8.50;4.90;;;;;;;18.04;75.73;96496.61;110582;1272;22305;-76
2023/09/26 07:38:58;;;;;;;8.40;4.90;;;;;;;18.15;74.95;96496.77;110634;1273;22976;-77
2023/09/26 07:41:26;;;;;;;9.30;4.80;;;;;;;18.26;73.70;96490.86;110674;1267;22388;-76
2023/09/26 07:43:54;;;;;;;11.60;5.60;;;;;;;18.41;73.66;96490.19;110516;1273;22375;-76
2023/09/26 07:46:23;;;;;;;11.20;5.80;;;;;;;18.60;74.60;96494.30;110609;1269;23103;-76
2023/09/26 07:48:51;;;;;;;8.90;5.50;;;;;;;18.78;73.29;96496.00;110554;1273;22329;-76
2023/09/26 07:51:19;;;;;;;12.10;6.20;;;;;;;18.92;70.34;96499.95;110713;1273;22907;-75
2023/09/26 07:53:47;;;;;;;14.20;6.10;;;;;;;19.06;70.76;96495.68;110696;1272;22391;-75
2023/09/26 07:56:16;;;;;;;13.70;6.60;;;;;;;19.24;70.95;96500.71;110706;1273;22152;-74
2023/09/26 07:58:44;;;;;;;9.00;6.40;;;;;;;19.39;70.42;96499.42;110544;1273;22122;-76
2023/09/26 08:01:13;;;;;;;9.80;6.30;;;;;;;19.51;68.79;96494.66;110725;1273;22211;-75
2023/09/26 08:03:43;;;;;;;12.70;6.10;;;;;;;19.65;69.64;96494.83;110703;1273;22172;-77
2023/09/26 08:06:13;;;;;;;10.20;6.60;;;;;;;19.79;69.55;96499.83;110562;1273;22154;-75
2023/09/26 08:08:41;;;;;;;8.60;6.80;;;;;;;19.92;69.27;96501.10;110735;1273;22126;-75
2023/09/26 08:11:11;;;;;;;13.10;7.30;;;;;;;20.01;68.39;96498.20;110710;1273;22211;-76
2023/09/26 08:13:40;;;;;;;14.10;6.40;;;;;;;20.15;68.54;96498.35;110700;1273;22188;-76
2023/09/26 08:16:08;;;;;;;7.60;6.10;;;;;;;20.29;68.77;96496.88;110689;1273;22739;-77
2023/09/26 08:18:37;;;;;;;10.40;6.30;;;;;;;20.40;67.00;96492.65;110728;1273;22122;-75
2023/09/26 08:21:05;;;;;;;9.10;6.50;;;;;;;20.46;66.55;96493.98;110521;1273;22473;-76
2023/09/26 08:23:34;;;;;;;15.70;6.40;;;;;;;20.55;65.72;96495.23;110703;1251;23545;-76
2023/09/26 08:26:05;;;;;;;10.70;6.90;;;;;;;20.62;65.21;96494.56;110684;1273;22452;-77
2023/09/26 08:28:34;;;;;;;10.50;6.00;;;;;;;20.70;64.51;96490.60;110714;1273;22448;-75
2023/09/26 08:31:07;;;;;;;9.80;6.10;;;;;;;20.79;64.22;96487.20;110709;1273;22194;-76
2023/09/26 08:33:37;;;;;;;11.70;6.10;;;;;;;20.91;64.94;96488.77;110588;1273;23097;-77
2023/09/26 08:36:24;;;;;;;12.40;6.70;;;;;;;21.04;62.67;96474.43;110553;1273;22258;-77
2023/09/26 08:38:52;;;;;;;12.80;6.20;;;;;;;21.16;61.68;96472.42;110559;1273;22113;-76
2023/09/26 08:41:21;;;;;;;11.30;6.20;;;;;;;21.28;61.34;96472.08;110696;1273;22860;-77
2023/09/26 08:43:49;;;;;;;9.70;6.00;;;;;;;21.35;59.00;96471.38;110709;1273;22137;-76
2023/09/26 08:46:19;;;;;;;12.20;5.70;;;;;;;21.46;58.94;96473.56;110720;1273;23214;-77
2023/09/26 08:48:47;;;;;;;11.30;5.90;;;;;;;21.57;58.63;96469.82;110692;1273;22980;-77
2023/09/26 08:51:16;;;;;;;16.40;6.20;;;;;;;21.69;59.06;96471.20;110706;1273;22361;-76
2023/09/26 08:53:44;;;;;;;12.50;5.80;;;;;;;21.81;57.13;96472.94;110697;1273;22209;-78
2023/09/26 08:56:12;;;;;;;12.90;6.10;;;;;;;21.90;57.50;96470.58;110539;1273;22173;-77
2023/09/26 08:58:42;;;;;;;10.50;5.70;;;;;;;22.00;57.33;96467.70;110702;1273;22114;-76
2023/09/26 09:01:11;;;;;;;12.40;5.90;;;;;;;22.10;56.42;96464.35;110588;1273;22196;-79
2023/09/26 09:03:39;;;;;;;12.20;5.70;;;;;;;22.18;55.78;96464.86;110701;1273;22585;-78
2023/09/26 09:06:10;;;;;;;7.90;5.50;;;;;;;22.30;56.16;96466.63;110718;1273;22198;-77
2023/09/26 09:08:38;;;;;;;9.90;5.50;;;;;;;22.37;55.37;96463.92;110699;1273;22288;-76
2023/09/26 09:11:06;;;;;;;9.50;5.90;;;;;;;22.40;54.73;96465.54;110712;1273;22168;-78
2023/09/26 09:13:40;;;;;;;10.60;5.80;;;;;;;22.44;53.52;96464.77;110699;1273;22503;-79
2023/09/26 09:16:15;;;;;;;12.10;5.50;;;;;;;22.44;53.82;96464.64;110695;1273;22967;-77
2023/09/26 09:18:47;;;;;;;10.20;5.60;;;;;;;22.52;53.63;96466.52;110726;1273;22105;-77
2023/09/26 09:21:27;;;;;;;11.50;5.60;;;;;;;22.59;53.50;96466.16;110516;1274;23130;-79
2023/09/26 09:24:04;;;;;;;9.00;5.90;;;;;;;22.64;53.03;96463.39;110293;1274;22189;-78
2023/09/26 09:26:35;;;;;;;10.70;5.70;;;;;;;22.71;54.11;96460.70;110528;1274;22884;-78
2023/09/26 09:29:29;;;;;;;13.80;5.90;;;;;;;22.87;53.73;96450.70;110425;1274;22177;-78
2023/09/26 09:31:58;;;;;;;8.40;5.50;;;;;;;23.03;52.64;96452.55;110533;1274;22345;-78
2023/09/26 09:34:27;;;;;;;12.00;5.60;;;;;;;22.98;51.21;96453.70;110607;1274;22190;-78
2023/09/26 09:36:56;;;;;;;12.10;5.70;;;;;;;23.00;51.39;96448.98;110591;1274;22178;-77
2023/09/26 09:39:24;;;;;;;8.80;5.20;;;;;;;23.07;50.41;96445.71;110515;1274;22195;-78
2023/09/26 09:41:57;;;;;;;13.80;5.60;;;;;;;23.02;48.79;96442.55;110602;1274;22300;-78
2023/09/26 09:44:26;;;;;;;9.20;5.00;;;;;;;22.98;48.31;96436.68;110514;1274;22958;-79
2023/09/26 09:47:03;;;;;;;15.10;5.50;;;;;;;23.09;49.37;96438.96;110571;1274;22153;-77
2023/09/26 09:49:32;;;;;;;9.10;4.80;;;;;;;23.31;49.53;96438.81;110598;1274;22187;-79
2023/09/26 09:52:04;;;;;;;16.20;4.90;;;;;;;23.45;47.27;96436.21;110572;1274;22232;-78
2023/09/26 09:54:33;;;;;;;;;;;;;;;23.58;47.11;96430.14;110619;1274;22255;-77
2023/09/26 09:57:09;;;;;;;10.30;4.50;;;;;;;23.64;46.86;96432.99;110574;1274;22209;-78
2023/09/26 09:59:39;;;;;;;9.60;5.00;;;;;;;23.62;46.18;96430.62;110573;1274;22220;-78
2023/09/26 10:02:10;;;;;;;7.10;4.90;;;;;;;23.70;46.24;96433.55;110596;1274;22883;-78
2023/09/26 10:04:39;;;;;;;10.00;4.80;;;;;;;23.72;46.07;96427.86;110610;1275;22893;-78
2023/09/26 10:07:09;;;;;;;8.80;4.70;;;;;;;23.80;47.07;96426.73;110581;1274;22886;-80
2023/09/26 10:09:38;;;;;;;12.50;4.50;;;;;;;23.91;46.83;96417.41;110525;1275;22175;-79
2023/09/26 10:12:08;;;;;;;9.70;4.60;;;;;;;24.01;46.57;96414.90;110536;1274;22922;-78
2023/09/26 10:14:36;;;;;;;7.50;4.40;;;;;;;24.15;46.22;96411.17;110541;1274;22242;-79
2023/09/26 10:17:06;;;;;;;12.10;5.20;;;;;;;24.22;45.00;96409.52;110580;1275;22370;-77
2023/09/26 10:19:35;;;;;;;12.60;4.50;;;;;;;24.17;43.68;96406.20;110549;1274;22152;-75
2023/09/26 10:22:25;;;;;;;14.80;4.80;;;;;;;24.23;44.27;96408.36;110597;1274;23178;-74
2023/09/26 10:24:53;;;;;;;9.60;4.70;;;;;;;24.30;42.90;96403.09;110571;1274;22603;-74
2023/09/26 10:27:31;;;;;;;9.00;4.20;;;;;;;24.32;42.54;96402.80;110577;1274;23226;-76
2023/09/26 10:30:19;;;;;;;7.50;4.80;;;;;;;24.44;43.73;96398.30;110559;1274;22151;-75
2023/09/26 10:32:47;;;;;;;12.70;4.60;;;;;;;24.52;42.27;96400.75;110597;1275;22172;-76
2023/09/26 10:35:16;;;;;;;14.60;4.70;;;;;;;24.53;42.12;96390.95;110632;1275;22923;-76
2023/09/26 10:37:49;;;;;;;6.00;4.00;;;;;;;24.52;41.71;96385.25;110597;1274;22154;-76
2023/09/26 10:40:18;;;;;;;10.90;5.00;;;;;;;24.51;42.44;96382.77;110460;1274;22129;-78
2023/09/26 10:42:48;;;;;;;10.20;4.40;;;;;;;24.71;42.23;96387.35;110592;1274;22898;-75
2023/09/26 10:45:19;;;;;;;13.80;4.60;;;;;;;24.88;40.22;96378.16;110594;1275;22158;-75
2023/09/26 10:47:48;;;;;;;14.80;4.40;;;;;;;25.14;40.70;96378.48;110590;1274;22206;-75
2023/09/26 10:50:32;;;;;;;8.60;4.50;;;;;;;25.61;41.70;96376.71;110577;1274;22151;-74
2023/09/26 10:53:01;;;;;;;8.60;4.80;;;;;;;26.12;41.40;96376.61;110574;1274;22113;-75
2023/09/26 10:55:31;;;;;;;9.30;4.50;;;;;;;26.45;39.07;96373.39;110578;1274;22126;-75
2023/09/26 10:57:59;;;;;;;10.60;4.10;;;;;;;26.87;38.89;96379.65;110590;1274;22143;-75
2023/09/26 11:00:28;;;;;;;8.20;3.90;;;;;;;27.10;36.14;96373.71;110629;1274;22117;-75
2023/09/26 11:02:57;;;;;;;9.10;4.70;;;;;;;27.20;36.34;96369.25;110607;1274;22123;-75
2023/09/26 11:05:46;;;;;;;10.20;4.70;;;;;;;27.50;36.28;96367.73;110481;1274;22975;-75
2023/09/26 11:08:16;;;;;;;4.60;3.80;;;;;;;27.89;36.46;96365.91;110581;1274;22194;-76
2023/09/26 11:10:49;;;;;;;7.60;4.60;;;;;;;28.30;35.06;96365.18;110643;1274;22277;-75
2023/09/26 11:13:17;;;;;;;10.30;4.10;;;;;;;28.70;36.21;96354.66;110628;1275;22951;-76
2023/09/26 11:15:45;;;;;;;6.10;4.10;;;;;;;28.94;34.30;96356.39;110608;1275;22228;-76
2023/09/26 11:18:14;;;;;;;8.90;4.50;;;;;;;29.14;34.62;96358.42;110605;1274;23265;-76
2023/09/26 11:20:42;;;;;;;9.20;4.30;;;;;;;29.48;32.53;96359.60;110579;1274;22118;-77
2023/09/26 11:23:36;;;;;;;9.60;4.10;;;;;;;29.49;31.98;96360.33;110578;1273;22279;-76
2023/09/26 11:26:06;;;;;;;9.10;3.80;;;;;;;29.55;32.64;96364.19;110573;1273;22134;-76
2023/09/26 11:28:35;;;;;;;8.80;4.40;;;;;;;29.79;32.85;96362.02;110745;1273;22153;-77
2023/09/26 11:31:03;;;;;;;7.50;4.10;;;;;;;29.90;31.99;96356.73;110583;1273;23063;-76
2023/09/26 11:33:32;;;;;;;9.10;4.50;;;;;;;30.03;31.80;96360.15;110729;1273;22168;-76
2023/09/26 11:36:01;;;;;;;6.20;4.00;;;;;;;30.08;32.04;96357.77;110709;1273;22994;-76
2023/09/26 11:38:30;;;;;;;7.70;4.30;;;;;;;30.31;31.03;96359.83;110726;1273;22961;-76
2023/09/26 11:40:58;;;;;;;7.60;4.00;;;;;;;30.26;30.50;96355.30;110712;1273;22124;-76
2023/09/26 11:43:26;;;;;;;8.10;3.90;;;;;;;30.23;31.78;96357.58;110585;1273;22312;-76
2023/09/26 11:46:02;;;;;;;10.50;4.40;;;;;;;30.35;30.84;96355.11;110570;1273;22163;-75
2023/09/26 11:48:31;;;;;;;8.00;4.50;;;;;;;30.62;30.44;96350.08;110713;1273;22111;-75
2023/09/26 11:50:59;;;;;;;6.70;4.20;;;;;;;30.65;30.92;96346.16;110731;1273;22999;-75
2023/09/26 11:53:29;;;;;;;11.40;3.90;;;;;;;30.70;30.64;96349.71;110723;1273;22152;-76
2023/09/26 11:55:58;;;;;;;10.70;3.80;;;;;;;30.70;29.53;96349.73;110746;1273;22106;-77
2023/09/26 11:58:26;;;;;;;8.60;4.50;;;;;;;30.93;30.21;96346.48;110565;1273;22847;-76
2023/09/26 12:00:54;;;;;;;7.40;3.80;;;;;;;30.85;28.90;96345.52;110588;1273;22196;-76
2023/09/26 12:03:22;;;;;;;11.20;4.80;;;;;;;30.80;29.50;96346.84;110717;1273;22213;-77
2023/09/26 12:05:51;;;;;;;9.80;3.70;;;;;;;30.76;28.76;96349.42;110554;1273;22100;-76
2023/09/26 12:08:19;;;;;;;7.30;3.90;;;;;;;30.68;28.62;96344.61;110738;1273;22621;-76
2023/09/26 12:10:47;;;;;;;10.40;3.80;;;;;;;30.83;28.87;96343.71;110717;1273;22865;-76
2023/09/26 12:13:15;;;;;;;6.30;3.40;;;;;;;31.23;29.24;96344.02;110726;1273;22138;-76
2023/09/26 12:15:44;;;;;;;8.30;3.80;;;;;;;31.73;28.55;96338.24;110710;1273;22160;-76
2023/09/26 12:18:12;;;;;;;9.70;3.90;;;;;;;32.20;27.56;96339.14;110743;1273;22837;-76
2023/09/26 12:20:41;;;;;;;9.30;3.50;;;;;;;32.32;26.81;96339.84;110735;1273;22283;-76
2023/09/26 12:23:10;;;;;;;13.80;4.30;;;;;;;32.14;26.91;96339.34;110716;1273;22268;-76
2023/09/26 12:25:38;;;;;;;9.00;4.50;;;;;;;32.15;28.05;96339.23;110744;1273;22365;-76
2023/09/26 12:28:06;;;;;;;6.50;3.80;;;;;;;32.35;27.94;96335.95;110734;1273;22118;-76
2023/09/26 12:30:34;;;;;;;9.60;4.60;;;;;;;32.41;27.26;96335.02;110715;1273;22264;-76
2023/09/26 12:33:02;;;;;;;9.80;3.90;;;;;;;32.40;27.93;96329.10;110723;1273;22137;-76
2023/09/26 12:35:30;;;;;;;6.10;3.70;;;;;;;32.47;27.02;96329.36;110737;1273;22142;-76
2023/09/26 12:38:00;;;;;;;8.80;4.20;;;;;;;32.45;27.00;96321.88;110736;1260;22112;-76
2023/09/26 12:40:28;;;;;;;13.00;4.20;;;;;;;32.53;28.19;96318.19;110711;1273;22192;-76
2023/09/26 12:42:56;;;;;;;9.50;4.10;;;;;;;32.42;27.47;96319.45;110721;1273;22108;-75
2023/09/26 12:45:24;;;;;;;4.90;3.70;;;;;;;32.57;27.17;96315.33;110729;1262;22910;-75
2023/09/26 12:47:52;;;;;;;9.90;4.20;;;;;;;32.83;27.18;96319.41;110730;1273;22352;-76
2023/09/26 12:50:21;;;;;;;7.20;4.10;;;;;;;32.85;26.35;96315.31;110735;1273;23037;-75
2023/09/26 12:52:49;;;;;;;8.30;4.30;;;;;;;32.61;26.41;96318.34;110552;1273;22903;-76
2023/09/26 12:55:18;;;;;;;8.90;3.40;;;;;;;32.56;26.59;96314.16;110723;1273;22227;-76
2023/09/26 12:57:47;;;;;;;7.80;3.80;;;;;;;32.53;26.81;96315.13;110707;1273;22118;-75
2023/09/26 13:00:16;;;;;;;8.90;3.90;;;;;;;32.69;26.84;96316.66;110728;1273;22426;-75
2023/09/26 13:02:44;;;;;;;9.60;3.40;;;;;;;32.91;26.28;96313.70;110565;1273;22363;-76
2023/09/26 13:05:13;;;;;;;10.90;3.90;;;;;;;33.01;25.86;96315.45;110570;1273;22170;-76
2023/09/26 13:07:41;;;;;;;9.90;3.80;;;;;;;33.07;25.52;96312.13;110743;1273;22216;-76
2023/09/26 13:10:10;;;;;;;11.50;3.90;;;;;;;33.26;25.77;96311.15;110703;1273;22934;-76
2023/09/26 13:12:38;;;;;;;12.20;3.90;;;;;;;33.22;25.44;96309.35;110703;1273;22751;-77